createdAt,value
2022-10-17T00:00:12.930Z,16.50
2022-10-17T00:00:54.612Z,16.50
2022-10-17T00:01:36.334Z,16.60
2022-10-17T00:02:17.978Z,16.50
2022-10-17T00:02:59.634Z,16.50
2022-10-17T00:03:41.605Z,16.50
2022-10-17T00:04:23.279Z,16.50
2022-10-17T00:05:05.336Z,16.50
2022-10-17T00:05:48.795Z,16.50
2022-10-17T00:06:30.516Z,16.50
2022-10-17T00:07:12.247Z,16.50
2022-10-17T00:07:54.737Z,16.60
2022-10-17T00:08:37.590Z,16.60
2022-10-17T00:09:19.270Z,16.50
2022-10-17T00:10:00.911Z,16.10
2022-10-17T00:10:43.204Z,16.60
2022-10-17T00:11:26.651Z,16.80
2022-10-17T00:12:08.292Z,16.60
2022-10-17T00:12:51.653Z,16.60
2022-10-17T00:13:34.242Z,16.50
2022-10-17T00:14:15.916Z,16.40
2022-10-17T00:14:57.685Z,16.60
2022-10-17T00:15:44.519Z,16.60
2022-10-17T00:16:28.516Z,16.50
2022-10-17T00:17:10.202Z,16.50
2022-10-17T00:17:51.869Z,16.70
2022-10-17T00:18:33.627Z,16.60
2022-10-17T00:19:15.296Z,16.40
2022-10-17T00:19:59.208Z,16.60
2022-10-17T00:20:40.902Z,16.80
2022-10-17T00:21:23.618Z,16.60
2022-10-17T00:22:05.252Z,16.50
2022-10-17T00:22:46.947Z,16.60
2022-10-17T00:23:30.223Z,16.50
2022-10-17T00:24:11.927Z,16.70
2022-10-17T00:24:53.682Z,16.60
2022-10-17T00:25:35.371Z,16.60
2022-10-17T00:26:17.760Z,16.50
2022-10-17T00:26:59.498Z,16.50
2022-10-17T00:27:41.955Z,16.60
2022-10-17T00:28:23.645Z,16.60
2022-10-17T00:29:05.548Z,16.60
2022-10-17T00:29:50.838Z,16.60
2022-10-17T00:30:32.833Z,16.60
2022-10-17T00:31:14.835Z,16.60
2022-10-17T00:31:57.488Z,16.80
2022-10-17T00:32:39.835Z,16.60
2022-10-17T00:33:21.458Z,16.60
2022-10-17T00:34:03.150Z,16.60
2022-10-17T00:34:44.963Z,16.50
2022-10-17T00:35:26.663Z,16.60
2022-10-17T00:36:18.398Z,16.60
2022-10-17T00:37:00.101Z,16.60
2022-10-17T00:37:41.812Z,16.60
2022-10-17T00:38:23.462Z,16.50
2022-10-17T00:39:05.768Z,16.60
2022-10-17T00:39:47.393Z,16.60
2022-10-17T00:40:29.104Z,16.40
2022-10-17T00:41:14.254Z,16.60
2022-10-17T00:41:55.909Z,16.60
2022-10-17T00:42:37.671Z,16.60
2022-10-17T00:43:19.313Z,16.60
2022-10-17T00:44:05.698Z,16.60
2022-10-17T00:44:47.554Z,16.60
2022-10-17T00:45:31.549Z,16.70
2022-10-17T00:46:13.206Z,16.60
2022-10-17T00:46:56.076Z,16.80
2022-10-17T00:47:37.981Z,16.60
2022-10-17T00:48:23.142Z,16.60
2022-10-17T00:49:11.321Z,16.60
2022-10-17T00:49:53.138Z,16.60
2022-10-17T00:50:36.576Z,16.60
2022-10-17T00:51:22.908Z,16.60
2022-10-17T00:52:14.932Z,16.70
2022-10-17T00:53:01.257Z,16.60
2022-10-17T00:53:43.386Z,16.60
2022-10-17T00:54:30.690Z,16.60
2022-10-17T00:55:14.817Z,16.60
2022-10-17T00:55:56.463Z,16.50
2022-10-17T00:56:40.336Z,16.60
2022-10-17T00:57:22.221Z,16.50
2022-10-17T00:58:05.686Z,16.60
2022-10-17T00:58:47.962Z,16.60
2022-10-17T00:59:32.747Z,16.50
2022-10-17T01:00:15.991Z,16.60
2022-10-17T01:00:57.783Z,16.60
2022-10-17T01:01:43.362Z,16.60
2022-10-17T01:02:25.403Z,16.60
2022-10-17T01:03:07.198Z,16.60
2022-10-17T01:03:48.927Z,16.60
2022-10-17T01:04:30.899Z,16.50
2022-10-17T01:05:13.092Z,16.50
2022-10-17T01:05:55.144Z,16.50
2022-10-17T01:06:36.785Z,16.50
2022-10-17T01:07:18.651Z,16.60
2022-10-17T01:08:00.878Z,16.80
2022-10-17T01:08:42.633Z,16.50
2022-10-17T01:09:25.251Z,16.40
2022-10-17T01:10:08.302Z,16.50
2022-10-17T01:11:19.038Z,16.50
2022-10-17T01:12:21.819Z,16.50
2022-10-17T01:13:24.230Z,16.50
2022-10-17T01:14:31.906Z,16.50
2022-10-17T01:15:21.963Z,16.50
2022-10-17T01:16:24.509Z,16.50
2022-10-17T01:17:17.505Z,16.50
2022-10-17T01:18:13.709Z,16.50
2022-10-17T01:19:36.633Z,16.50
2022-10-17T01:20:39.349Z,16.50
2022-10-17T01:21:34.344Z,16.50
2022-10-17T01:22:36.371Z,16.40
2022-10-17T01:23:29.946Z,16.50
2022-10-17T01:24:33.291Z,16.40
2022-10-17T01:25:29.897Z,16.40
2022-10-17T01:26:26.384Z,16.40
2022-10-17T01:27:23.570Z,16.40
2022-10-17T01:28:45.430Z,16.40
2022-10-17T01:29:34.882Z,16.40
2022-10-17T01:30:28.233Z,16.30
2022-10-17T01:31:14.458Z,16.40
2022-10-17T01:32:02.546Z,16.40
2022-10-17T01:32:50.521Z,16.40
2022-10-17T01:34:00.243Z,16.30
2022-10-17T01:34:59.884Z,16.30
2022-10-17T01:36:14.552Z,16.30
2022-10-17T01:37:14.839Z,16.30
2022-10-17T01:38:10.523Z,16.30
2022-10-17T01:39:10.375Z,16.30
2022-10-17T01:40:10.610Z,16.30
2022-10-17T01:40:58.258Z,16.30
2022-10-17T01:42:10.627Z,16.30
2022-10-17T01:43:05.072Z,16.30
2022-10-17T01:44:09.707Z,16.30
2022-10-17T01:45:03.910Z,16.30
2022-10-17T01:45:49.977Z,16.30
2022-10-17T01:46:45.022Z,16.30
2022-10-17T01:47:30.665Z,16.30
2022-10-17T01:48:20.571Z,16.30
2022-10-17T01:49:04.519Z,16.30
2022-10-17T01:49:49.654Z,16.20
2022-10-17T01:50:43.539Z,16.30
2022-10-17T01:51:39.335Z,16.30
2022-10-17T01:52:26.697Z,16.30
2022-10-17T01:53:19.426Z,16.40
2022-10-17T01:54:11.959Z,16.30
2022-10-17T01:55:16.871Z,16.30
2022-10-17T01:56:02.731Z,16.30
2022-10-17T01:56:47.834Z,16.30
2022-10-17T01:57:31.589Z,16.20
2022-10-17T01:58:20.801Z,16.30
2022-10-17T01:59:13.031Z,16.30
2022-10-17T01:59:56.398Z,16.30
2022-10-17T02:00:39.830Z,16.30
2022-10-17T02:01:23.637Z,16.60
2022-10-17T02:02:07.339Z,16.30
2022-10-17T02:02:52.925Z,16.30
2022-10-17T02:03:35.574Z,16.30
2022-10-17T02:04:17.537Z,16.30
2022-10-17T02:05:48.562Z,16.30
2022-10-17T02:06:35.306Z,16.30
2022-10-17T02:07:17.257Z,16.30
2022-10-17T02:07:58.956Z,16.30
2022-10-17T02:08:51.524Z,16.30
2022-10-17T02:09:33.155Z,16.30
2022-10-17T02:10:38.554Z,16.30
2022-10-17T02:11:25.945Z,16.30
2022-10-17T02:12:13.548Z,16.30
2022-10-17T02:13:24.363Z,16.30
2022-10-17T02:15:31.802Z,16.30
2022-10-17T02:16:32.230Z,16.30
2022-10-17T02:17:40.129Z,16.30
2022-10-17T02:18:34.848Z,16.30
2022-10-17T02:19:36.646Z,16.30
2022-10-17T02:20:21.412Z,16.30
2022-10-17T02:21:44.270Z,16.30
2022-10-17T02:22:56.292Z,16.30
2022-10-17T02:23:56.438Z,16.30
2022-10-17T02:24:57.899Z,16.30
2022-10-17T02:26:11.914Z,16.30
2022-10-17T02:27:14.138Z,16.30
2022-10-17T02:28:14.784Z,16.30
2022-10-17T02:29:20.706Z,16.20
2022-10-17T02:30:14.430Z,16.30
2022-10-17T02:31:20.297Z,16.30
2022-10-17T02:32:09.617Z,16.30
2022-10-17T02:33:05.654Z,16.30
2022-10-17T02:33:56.923Z,16.30
2022-10-17T02:34:47.256Z,16.30
2022-10-17T02:35:35.591Z,16.30
2022-10-17T02:36:22.521Z,16.40
2022-10-17T02:37:07.058Z,16.30
2022-10-17T02:37:50.725Z,16.30
2022-10-17T02:38:33.166Z,16.30
2022-10-17T02:39:16.665Z,16.30
2022-10-17T02:40:00.463Z,16.30
2022-10-17T02:40:44.249Z,16.30
2022-10-17T02:41:26.893Z,16.30
2022-10-17T02:42:11.828Z,16.30
2022-10-17T02:42:55.651Z,16.30
2022-10-17T02:43:38.784Z,16.30
2022-10-17T02:44:21.761Z,16.30
2022-10-17T02:45:05.520Z,16.60
2022-10-17T02:45:47.871Z,16.30
2022-10-17T02:46:31.465Z,16.30
2022-10-17T02:47:21.779Z,16.30
2022-10-17T02:48:08.777Z,16.30
2022-10-17T02:48:53.328Z,16.40
2022-10-17T02:49:41.615Z,16.30
2022-10-17T02:51:23.969Z,16.30
2022-10-17T02:52:14.949Z,16.30
2022-10-17T02:53:01.126Z,16.30
2022-10-17T02:54:05.898Z,16.30
2022-10-17T02:55:15.437Z,16.40
2022-10-17T02:56:00.313Z,16.40
2022-10-17T02:56:54.709Z,16.40
2022-10-17T02:57:38.516Z,16.40
2022-10-17T02:58:25.397Z,16.30
2022-10-17T02:59:09.593Z,16.30
2022-10-17T02:59:51.695Z,16.40
2022-10-17T03:00:34.298Z,16.40
2022-10-17T03:01:17.161Z,16.40
2022-10-17T03:02:02.338Z,16.40
2022-10-17T03:02:43.920Z,16.40
2022-10-17T03:03:28.816Z,16.40
2022-10-17T03:04:13.694Z,16.40
2022-10-17T03:04:56.311Z,16.50
2022-10-17T03:05:37.967Z,16.30
2022-10-17T03:06:19.639Z,16.40
2022-10-17T03:07:01.330Z,16.50
2022-10-17T03:07:42.973Z,16.40
2022-10-17T03:08:24.862Z,16.40
2022-10-17T03:09:07.056Z,16.40
2022-10-17T03:09:48.710Z,16.40
2022-10-17T03:10:30.349Z,16.40
2022-10-17T03:11:11.985Z,16.40
2022-10-17T03:11:53.834Z,16.70
2022-10-17T03:12:35.458Z,16.30
2022-10-17T03:13:17.716Z,16.50
2022-10-17T03:13:59.447Z,16.50
2022-10-17T03:14:41.089Z,16.80
2022-10-17T03:15:22.693Z,16.50
2022-10-17T03:16:06.262Z,16.40
2022-10-17T03:16:47.934Z,16.50
2022-10-17T03:17:29.570Z,16.50
2022-10-17T03:18:11.210Z,16.40
2022-10-17T03:18:52.959Z,16.50
2022-10-17T03:19:34.599Z,16.50
2022-10-17T03:20:16.247Z,16.50
2022-10-17T03:20:57.875Z,16.50
2022-10-17T03:21:39.494Z,16.50
2022-10-17T03:22:21.192Z,16.90
2022-10-17T03:23:02.934Z,16.40
2022-10-17T03:23:44.663Z,16.40
2022-10-17T03:24:26.432Z,16.70
2022-10-17T03:25:08.307Z,16.50
2022-10-17T03:25:49.941Z,16.50
2022-10-17T03:26:31.734Z,16.40
2022-10-17T03:27:13.363Z,16.50
2022-10-17T03:27:57.589Z,16.40
2022-10-17T03:28:39.384Z,16.40
2022-10-17T03:29:21.060Z,16.40
2022-10-17T03:30:02.731Z,16.40
2022-10-17T03:30:44.350Z,16.40
2022-10-17T03:31:26.099Z,16.50
2022-10-17T03:32:07.978Z,16.50
2022-10-17T03:32:49.843Z,16.40
2022-10-17T03:33:31.507Z,16.50
2022-10-17T03:34:13.169Z,16.50
2022-10-17T03:34:54.840Z,16.50
2022-10-17T03:35:40.224Z,16.50
2022-10-17T03:36:22.069Z,16.50
2022-10-17T03:37:03.815Z,16.50
2022-10-17T03:37:45.434Z,16.60
2022-10-17T03:38:27.091Z,16.50
2022-10-17T03:39:08.737Z,16.50
2022-10-17T03:39:50.400Z,16.50
2022-10-17T03:40:32.021Z,16.50
2022-10-17T03:41:13.790Z,16.50
2022-10-17T03:41:55.431Z,16.60
2022-10-17T03:42:37.093Z,16.50
2022-10-17T03:43:18.726Z,16.60
2022-10-17T03:44:00.353Z,16.50
2022-10-17T03:44:42.036Z,16.50
2022-10-17T03:45:23.665Z,16.50
2022-10-17T03:46:06.273Z,16.50
2022-10-17T03:46:47.961Z,16.50
2022-10-17T03:47:29.903Z,16.50
2022-10-17T03:48:11.666Z,16.50
2022-10-17T03:48:53.615Z,16.50
2022-10-17T03:49:35.249Z,16.50
2022-10-17T03:50:17.044Z,16.60
2022-10-17T03:51:04.674Z,16.60
2022-10-17T03:51:46.296Z,16.80
2022-10-17T03:52:27.951Z,16.50
2022-10-17T03:53:09.662Z,16.60
2022-10-17T03:53:51.323Z,16.50
2022-10-17T03:54:32.970Z,16.50
2022-10-17T03:55:15.500Z,16.60
2022-10-17T03:56:08.213Z,16.60
2022-10-17T03:56:49.930Z,16.60
2022-10-17T03:57:31.954Z,16.60
2022-10-17T03:58:13.886Z,16.60
2022-10-17T03:58:56.094Z,16.60
2022-10-17T03:59:38.455Z,16.60
2022-10-17T04:00:20.193Z,16.60
2022-10-17T04:01:10.797Z,16.60
2022-10-17T04:01:52.485Z,16.60
2022-10-17T04:02:35.195Z,16.60
2022-10-17T04:03:17.422Z,16.60
2022-10-17T04:03:59.253Z,16.60
2022-10-17T04:04:40.941Z,16.50
2022-10-17T04:05:22.658Z,16.60
2022-10-17T04:06:05.418Z,16.60
2022-10-17T04:06:47.099Z,16.60
2022-10-17T04:07:28.789Z,16.60
2022-10-17T04:08:10.460Z,16.40
2022-10-17T04:08:52.166Z,16.50
2022-10-17T04:09:33.840Z,16.50
2022-10-17T04:10:15.811Z,16.50
2022-10-17T04:11:01.644Z,16.60
2022-10-17T04:11:43.335Z,16.60
2022-10-17T04:12:25.436Z,16.50
2022-10-17T04:13:07.139Z,16.60
2022-10-17T04:13:54.504Z,16.60
2022-10-17T04:14:37.119Z,16.50
2022-10-17T04:15:18.784Z,16.50
2022-10-17T04:16:03.095Z,16.50
2022-10-17T04:16:44.749Z,16.60
2022-10-17T04:17:26.454Z,16.60
2022-10-17T04:18:08.110Z,16.60
2022-10-17T04:18:56.540Z,16.60
2022-10-17T04:19:38.201Z,16.60
2022-10-17T04:20:19.837Z,16.60
2022-10-17T04:21:03.176Z,16.60
2022-10-17T04:21:44.860Z,16.60
2022-10-17T04:22:27.505Z,16.60
2022-10-17T04:23:09.415Z,16.60
2022-10-17T04:24:00.947Z,16.60
2022-10-17T04:24:42.878Z,16.60
2022-10-17T04:25:25.259Z,16.60
2022-10-17T04:26:07.257Z,16.60
2022-10-17T04:26:52.628Z,16.60
2022-10-17T04:27:34.309Z,16.60
2022-10-17T04:28:16.279Z,16.60
2022-10-17T04:28:57.916Z,16.60
2022-10-17T04:29:39.630Z,16.60
2022-10-17T04:30:21.452Z,16.80
2022-10-17T04:31:05.758Z,16.60
2022-10-17T04:31:47.733Z,16.60
2022-10-17T04:32:29.640Z,16.60
2022-10-17T04:33:11.501Z,16.60
2022-10-17T04:33:53.143Z,16.60
2022-10-17T04:34:34.819Z,16.60
2022-10-17T04:35:16.540Z,16.60
2022-10-17T04:36:03.454Z,16.60
2022-10-17T04:36:45.696Z,16.60
2022-10-17T04:37:29.470Z,16.60
2022-10-17T04:38:11.176Z,16.60
2022-10-17T04:38:52.833Z,16.80
2022-10-17T04:39:34.478Z,16.60
2022-10-17T04:40:16.130Z,16.60
2022-10-17T04:40:59.967Z,16.60
2022-10-17T04:41:41.698Z,16.60
2022-10-17T04:42:23.369Z,16.60
2022-10-17T04:43:04.995Z,16.60
2022-10-17T04:43:50.142Z,16.60
2022-10-17T04:44:33.983Z,16.60
2022-10-17T04:45:15.752Z,16.60
2022-10-17T04:45:58.733Z,16.60
2022-10-17T04:46:40.377Z,16.60
2022-10-17T04:47:22.002Z,16.60
2022-10-17T04:48:03.764Z,16.60
2022-10-17T04:48:45.449Z,16.60
2022-10-17T04:49:27.240Z,16.60
2022-10-17T04:50:09.292Z,16.60
2022-10-17T04:51:01.295Z,16.60
2022-10-17T04:51:42.946Z,16.60
2022-10-17T04:52:25.632Z,16.60
2022-10-17T04:53:07.272Z,16.60
2022-10-17T04:53:48.912Z,16.60
2022-10-17T04:54:30.535Z,16.60
2022-10-17T04:55:12.174Z,16.60
2022-10-17T04:55:53.876Z,16.60
2022-10-17T04:56:35.542Z,16.60
2022-10-17T04:57:17.500Z,16.60
2022-10-17T04:57:59.137Z,16.60
2022-10-17T04:58:41.903Z,16.60
2022-10-17T04:59:23.556Z,16.60
2022-10-17T05:00:05.724Z,16.60
2022-10-17T05:00:47.478Z,16.60
2022-10-17T05:01:29.191Z,16.60
2022-10-17T05:02:10.915Z,16.40
2022-10-17T05:02:53.953Z,16.60
2022-10-17T05:03:36.082Z,16.60
2022-10-17T05:04:21.057Z,16.60
2022-10-17T05:05:06.010Z,16.50
2022-10-17T05:05:48.192Z,16.60
2022-10-17T05:06:30.187Z,16.60
2022-10-17T05:07:11.845Z,16.60
2022-10-17T05:07:53.570Z,16.60
2022-10-17T05:08:35.587Z,16.60
2022-10-17T05:09:17.251Z,16.60
2022-10-17T05:09:58.910Z,16.60
2022-10-17T05:10:42.862Z,16.60
2022-10-17T05:11:27.246Z,16.60
2022-10-17T05:12:10.386Z,16.60
2022-10-17T05:12:52.287Z,16.60
2022-10-17T05:13:33.974Z,16.70
2022-10-17T05:14:15.772Z,16.70
2022-10-17T05:14:57.449Z,16.70
2022-10-17T05:15:39.857Z,16.70
2022-10-17T05:16:22.153Z,16.60
2022-10-17T05:17:03.809Z,16.70
2022-10-17T05:17:45.902Z,16.70
2022-10-17T05:18:28.975Z,16.60
2022-10-17T05:19:11.560Z,16.60
2022-10-17T05:19:53.213Z,16.70
2022-10-17T05:20:35.051Z,16.60
2022-10-17T05:21:17.483Z,16.60
2022-10-17T05:21:59.118Z,16.60
2022-10-17T05:22:42.117Z,16.60
2022-10-17T05:23:24.154Z,16.70
2022-10-17T05:24:09.955Z,16.70
2022-10-17T05:24:51.590Z,16.70
2022-10-17T05:25:33.207Z,16.70
2022-10-17T05:26:15.470Z,16.50
2022-10-17T05:26:57.094Z,16.70
2022-10-17T05:27:38.806Z,16.70
2022-10-17T05:28:20.422Z,16.70
2022-10-17T05:29:03.077Z,16.70
2022-10-17T05:29:45.667Z,16.70
2022-10-17T05:30:27.334Z,16.70
2022-10-17T05:31:10.551Z,16.70
2022-10-17T05:31:52.297Z,16.70
2022-10-17T05:32:34.079Z,16.70
2022-10-17T05:33:16.140Z,16.70
2022-10-17T05:34:02.551Z,16.60
2022-10-17T05:34:44.186Z,16.70
2022-10-17T05:35:25.888Z,16.70
2022-10-17T05:36:08.206Z,16.70
2022-10-17T05:36:49.881Z,16.70
2022-10-17T05:37:32.053Z,16.90
2022-10-17T05:38:13.725Z,16.70
2022-10-17T05:38:55.631Z,16.70
2022-10-17T05:39:37.325Z,16.70
2022-10-17T05:40:18.961Z,16.70
2022-10-17T05:41:01.958Z,16.70
2022-10-17T05:41:43.589Z,16.70
2022-10-17T05:42:25.334Z,16.70
2022-10-17T05:43:07.070Z,16.80
2022-10-17T05:43:50.151Z,16.70
2022-10-17T05:44:31.762Z,16.70
2022-10-17T05:45:13.814Z,16.70
2022-10-17T05:45:55.874Z,16.70
2022-10-17T05:46:37.541Z,16.70
2022-10-17T05:47:19.210Z,16.70
2022-10-17T05:48:00.856Z,16.70
2022-10-17T05:48:42.475Z,16.70
2022-10-17T05:49:33.424Z,16.70
2022-10-17T05:50:25.553Z,16.70
2022-10-17T05:51:10.674Z,16.70
2022-10-17T05:51:52.327Z,16.70
2022-10-17T05:52:34.082Z,16.70
2022-10-17T05:53:16.622Z,16.70
2022-10-17T05:53:58.237Z,16.60
2022-10-17T05:54:40.188Z,16.70
2022-10-17T05:55:22.371Z,16.60
2022-10-17T05:56:06.281Z,16.70
2022-10-17T05:56:52.422Z,16.70
2022-10-17T05:57:34.383Z,16.60
2022-10-17T05:58:22.168Z,16.70
2022-10-17T05:59:05.322Z,16.60
2022-10-17T05:59:46.942Z,16.60
2022-10-17T06:00:28.673Z,16.70
2022-10-17T06:01:12.773Z,16.60
2022-10-17T06:01:54.921Z,16.60
2022-10-17T06:02:36.593Z,16.60
2022-10-17T06:03:18.247Z,16.60
2022-10-17T06:03:59.875Z,16.60
2022-10-17T06:04:45.522Z,16.60
2022-10-17T06:05:27.333Z,16.60
2022-10-17T06:06:11.865Z,16.60
2022-10-17T06:06:53.742Z,16.60
2022-10-17T06:07:36.064Z,16.60
2022-10-17T06:08:17.960Z,16.60
2022-10-17T06:08:59.653Z,16.70
2022-10-17T06:09:41.428Z,16.70
2022-10-17T06:10:23.158Z,16.70
2022-10-17T06:11:09.089Z,16.70
2022-10-17T06:11:51.992Z,16.70
2022-10-17T06:12:34.035Z,16.70
2022-10-17T06:13:17.605Z,16.70
2022-10-17T06:13:59.364Z,16.70
2022-10-17T06:14:41.006Z,16.70
2022-10-17T06:15:22.649Z,16.70
2022-10-17T06:16:04.764Z,16.70
2022-10-17T06:16:46.485Z,16.70
2022-10-17T06:17:29.117Z,16.70
2022-10-17T06:18:11.150Z,16.60
2022-10-17T06:18:53.002Z,16.70
2022-10-17T06:19:35.315Z,16.80
2022-10-17T06:20:17.041Z,16.70
2022-10-17T06:21:06.948Z,16.70
2022-10-17T06:21:48.612Z,16.70
2022-10-17T06:22:30.861Z,16.70
2022-10-17T06:23:12.763Z,16.80
2022-10-17T06:23:54.534Z,16.70
2022-10-17T06:24:36.254Z,16.80
2022-10-17T06:25:17.925Z,16.80
2022-10-17T06:26:01.012Z,16.70
2022-10-17T06:26:42.702Z,16.70
2022-10-17T06:27:24.481Z,16.70
2022-10-17T06:28:06.382Z,16.80
2022-10-17T06:28:48.154Z,16.80
2022-10-17T06:29:29.928Z,16.80
2022-10-17T06:30:11.613Z,16.80
2022-10-17T06:30:53.258Z,16.80
2022-10-17T06:31:35.012Z,16.80
2022-10-17T06:32:16.934Z,16.80
2022-10-17T06:32:58.606Z,16.80
2022-10-17T06:33:40.771Z,16.80
2022-10-17T06:34:22.889Z,16.90
2022-10-17T06:35:04.869Z,16.90
2022-10-17T06:35:54.633Z,16.90
2022-10-17T06:36:36.246Z,16.90
2022-10-17T06:37:17.867Z,17.00
2022-10-17T06:37:59.494Z,16.90
2022-10-17T06:38:41.515Z,16.90
2022-10-17T06:39:24.753Z,16.90
2022-10-17T06:40:08.975Z,16.90
2022-10-17T06:40:50.663Z,16.90
2022-10-17T06:41:32.339Z,16.90
2022-10-17T06:42:14.015Z,16.90
2022-10-17T06:42:56.504Z,16.90
2022-10-17T06:43:38.316Z,16.90
2022-10-17T06:44:19.967Z,16.90
2022-10-17T06:45:01.622Z,16.90
2022-10-17T06:45:45.481Z,16.90
2022-10-17T06:46:29.658Z,16.90
2022-10-17T06:47:12.706Z,17.00
2022-10-17T06:47:56.031Z,16.90
2022-10-17T06:48:37.800Z,16.90
2022-10-17T06:49:19.460Z,17.00
2022-10-17T06:50:01.109Z,16.90
2022-10-17T06:50:42.757Z,16.90
2022-10-17T06:51:24.468Z,17.00
2022-10-17T06:52:06.227Z,16.90
2022-10-17T06:52:51.715Z,16.90
2022-10-17T06:53:34.739Z,16.90
2022-10-17T06:54:16.650Z,17.00
2022-10-17T06:54:58.326Z,17.00
2022-10-17T06:55:40.007Z,17.00
2022-10-17T06:56:21.647Z,17.00
2022-10-17T06:57:03.298Z,17.00
2022-10-17T06:57:44.932Z,17.00
2022-10-17T06:58:27.494Z,17.00
2022-10-17T06:59:10.579Z,17.10
2022-10-17T06:59:53.278Z,17.10
2022-10-17T07:00:35.055Z,17.10
2022-10-17T07:01:17.475Z,17.10
2022-10-17T07:02:00.378Z,17.10
2022-10-17T07:02:43.813Z,17.20
2022-10-17T07:03:25.566Z,17.10
2022-10-17T07:04:07.237Z,17.20
2022-10-17T07:04:48.901Z,17.20
2022-10-17T07:05:30.535Z,17.20
2022-10-17T07:06:12.256Z,17.20
2022-10-17T07:06:54.232Z,17.20
2022-10-17T07:07:38.910Z,17.30
2022-10-17T07:08:23.549Z,17.20
2022-10-17T07:09:06.895Z,17.30
2022-10-17T07:09:48.583Z,17.30
2022-10-17T07:10:30.331Z,17.30
2022-10-17T07:11:14.278Z,17.30
2022-10-17T07:11:56.139Z,17.30
2022-10-17T07:12:38.079Z,17.30
2022-10-17T07:13:20.765Z,17.40
2022-10-17T07:14:03.793Z,17.40
2022-10-17T07:14:47.554Z,17.30
2022-10-17T07:15:29.315Z,17.40
2022-10-17T07:16:11.783Z,17.40
2022-10-17T07:16:53.418Z,17.40
2022-10-17T07:17:38.162Z,17.40
2022-10-17T07:18:19.826Z,17.40
2022-10-17T07:19:01.553Z,17.40
2022-10-17T07:19:45.915Z,17.50
2022-10-17T07:20:27.580Z,17.50
2022-10-17T07:21:09.621Z,17.50
2022-10-17T07:21:51.279Z,17.50
2022-10-17T07:22:32.941Z,17.50
2022-10-17T07:23:14.594Z,17.60
2022-10-17T07:23:56.386Z,17.60
2022-10-17T07:24:38.209Z,17.60
2022-10-17T07:25:19.913Z,17.60
2022-10-17T07:26:02.328Z,17.60
2022-10-17T07:26:44.081Z,17.60
2022-10-17T07:27:25.815Z,17.60
2022-10-17T07:28:07.485Z,17.60
2022-10-17T07:28:53.238Z,17.80
2022-10-17T07:29:35.055Z,17.60
2022-10-17T07:30:17.257Z,17.60
2022-10-17T07:31:07.147Z,17.60
2022-10-17T07:31:49.854Z,17.60
2022-10-17T07:32:31.533Z,17.60
2022-10-17T07:33:13.175Z,17.60
2022-10-17T07:33:54.836Z,17.60
2022-10-17T07:34:37.206Z,17.60
2022-10-17T07:35:19.169Z,17.60
2022-10-17T07:36:01.787Z,17.70
2022-10-17T07:36:43.696Z,17.70
2022-10-17T07:37:25.353Z,17.70
2022-10-17T07:38:07.254Z,17.70
2022-10-17T07:38:48.931Z,17.70
2022-10-17T07:39:30.611Z,17.80
2022-10-17T07:40:12.380Z,17.80
2022-10-17T07:40:59.230Z,17.80
2022-10-17T07:41:40.967Z,17.80
2022-10-17T07:42:23.660Z,17.90
2022-10-17T07:43:05.358Z,17.80
2022-10-17T07:43:47.139Z,18.90
2022-10-17T07:44:29.072Z,17.90
2022-10-17T07:45:10.942Z,17.90
2022-10-17T07:45:53.551Z,17.90
2022-10-17T07:46:35.569Z,17.90
2022-10-17T07:47:17.360Z,17.90
2022-10-17T07:47:59.132Z,18.00
2022-10-17T07:48:40.849Z,18.00
2022-10-17T07:49:22.590Z,18.00
2022-10-17T07:50:06.093Z,18.00
2022-10-17T07:50:48.105Z,18.00
2022-10-17T07:51:29.867Z,18.10
2022-10-17T07:52:15.357Z,18.10
2022-10-17T07:52:57.049Z,18.10
2022-10-17T07:53:41.798Z,18.10
2022-10-17T07:54:25.677Z,18.10
2022-10-17T07:55:08.196Z,18.10
2022-10-17T07:55:51.321Z,18.20
2022-10-17T07:56:33.289Z,18.20
2022-10-17T07:57:14.975Z,18.20
2022-10-17T07:57:58.329Z,18.20
2022-10-17T07:58:40.166Z,18.20
2022-10-17T07:59:21.818Z,18.20
2022-10-17T08:00:03.882Z,18.20
2022-10-17T08:00:48.485Z,18.30
2022-10-17T08:01:30.454Z,18.30
2022-10-17T08:02:22.686Z,18.30
2022-10-17T08:03:04.776Z,18.30
2022-10-17T08:03:48.767Z,18.30
2022-10-17T08:04:30.564Z,18.30
2022-10-17T08:05:12.212Z,18.30
2022-10-17T08:05:58.554Z,18.40
2022-10-17T08:06:40.248Z,18.40
2022-10-17T08:07:26.803Z,18.40
2022-10-17T08:08:10.881Z,18.40
2022-10-17T08:08:52.577Z,18.40
2022-10-17T08:09:34.360Z,18.40
2022-10-17T08:10:16.730Z,18.40
2022-10-17T08:11:03.910Z,18.40
2022-10-17T08:11:46.155Z,18.40
2022-10-17T08:12:32.314Z,18.50
2022-10-17T08:13:14.330Z,18.50
2022-10-17T08:13:56.442Z,18.50
2022-10-17T08:14:39.205Z,18.50
2022-10-17T08:15:20.894Z,18.50
2022-10-17T08:16:04.331Z,18.50
2022-10-17T08:16:45.999Z,18.50
2022-10-17T08:17:27.992Z,18.50
2022-10-17T08:18:09.769Z,18.50
2022-10-17T08:18:52.865Z,18.50
2022-10-17T08:19:34.601Z,18.50
2022-10-17T08:20:16.831Z,18.50
2022-10-17T08:21:02.936Z,18.40
2022-10-17T08:21:46.795Z,18.50
2022-10-17T08:22:28.765Z,18.50
2022-10-17T08:23:10.823Z,18.50
2022-10-17T08:23:52.569Z,18.40
2022-10-17T08:24:34.543Z,18.50
2022-10-17T08:25:16.230Z,18.50
2022-10-17T08:26:06.641Z,18.50
2022-10-17T08:26:49.599Z,18.50
2022-10-17T08:27:34.725Z,18.50
2022-10-17T08:28:16.479Z,18.50
2022-10-17T08:28:58.382Z,18.40
2022-10-17T08:29:41.019Z,18.40
2022-10-17T08:30:22.649Z,18.40
2022-10-17T08:31:09.485Z,18.40
2022-10-17T08:31:54.179Z,18.40
2022-10-17T08:32:40.377Z,18.50
2022-10-17T08:33:22.036Z,18.50
2022-10-17T08:34:03.741Z,18.50
2022-10-17T08:34:45.445Z,18.50
2022-10-17T08:35:27.320Z,18.50
2022-10-17T08:36:09.596Z,18.60
2022-10-17T08:36:51.599Z,18.60
2022-10-17T08:37:33.595Z,18.60
2022-10-17T08:38:17.804Z,18.60
2022-10-17T08:39:02.669Z,18.60
2022-10-17T08:39:44.499Z,18.60
2022-10-17T08:40:29.067Z,18.60
2022-10-17T08:41:23.395Z,18.60
2022-10-17T08:42:34.535Z,18.60
2022-10-17T08:43:42.460Z,18.60
2022-10-17T08:44:30.448Z,18.60
2022-10-17T08:45:27.356Z,18.60
2022-10-17T08:46:09.773Z,18.70
2022-10-17T08:46:57.019Z,18.50
2022-10-17T08:47:43.162Z,18.60
2022-10-17T08:48:27.543Z,18.70
2022-10-17T08:49:34.342Z,18.70
2022-10-17T08:50:34.529Z,18.70
2022-10-17T08:51:22.993Z,18.70
2022-10-17T08:52:15.489Z,18.70
2022-10-17T08:53:08.936Z,18.70
2022-10-17T08:54:12.960Z,18.70
2022-10-17T08:54:54.595Z,18.80
2022-10-17T08:55:45.477Z,18.80
2022-10-17T08:56:48.128Z,18.80
2022-10-17T08:57:30.760Z,18.80
2022-10-17T08:58:27.713Z,18.80
2022-10-17T08:59:28.515Z,18.80
2022-10-17T09:00:19.427Z,18.90
2022-10-17T09:01:13.644Z,18.90
2022-10-17T09:02:12.342Z,18.90
2022-10-17T09:03:17.727Z,18.90
2022-10-17T09:04:22.356Z,19.00
2022-10-17T09:05:41.315Z,19.00
2022-10-17T09:06:32.431Z,19.10
2022-10-17T09:07:24.942Z,19.00
2022-10-17T09:08:31.919Z,19.00
2022-10-17T09:09:16.292Z,19.00
2022-10-17T09:10:15.496Z,19.00
2022-10-17T09:11:04.364Z,18.90
2022-10-17T09:11:56.315Z,18.90
2022-10-17T09:12:37.956Z,18.90
2022-10-17T09:13:19.565Z,18.90
2022-10-17T09:14:22.769Z,19.10
2022-10-17T09:15:35.456Z,18.90
2022-10-17T09:16:46.019Z,18.90
2022-10-17T09:17:34.799Z,19.00
2022-10-17T09:18:27.404Z,18.90
2022-10-17T09:19:15.554Z,19.00
2022-10-17T09:20:10.649Z,19.00
2022-10-17T09:21:11.350Z,19.00
2022-10-17T09:22:01.615Z,19.00
2022-10-17T09:23:12.803Z,19.00
2022-10-17T09:24:08.915Z,19.00
2022-10-17T09:25:03.411Z,19.00
2022-10-17T09:25:48.968Z,19.00
2022-10-17T09:26:30.957Z,19.00
2022-10-17T09:27:18.876Z,19.10
2022-10-17T09:28:36.023Z,19.10
2022-10-17T09:29:22.572Z,19.10
2022-10-17T09:30:40.148Z,19.10
2022-10-17T09:31:34.078Z,19.10
2022-10-17T09:32:21.931Z,19.10
2022-10-17T09:33:53.373Z,19.10
2022-10-17T09:34:36.190Z,19.10
2022-10-17T09:35:19.253Z,19.10
2022-10-17T09:36:04.096Z,19.10
2022-10-17T09:36:45.816Z,19.20
2022-10-17T09:37:32.605Z,19.20
2022-10-17T09:38:18.524Z,19.20
2022-10-17T09:39:12.729Z,19.20
2022-10-17T09:39:54.437Z,19.20
2022-10-17T09:40:40.345Z,19.20
2022-10-17T09:41:46.562Z,19.20
2022-10-17T09:42:29.072Z,19.20
2022-10-17T09:43:15.244Z,19.30
2022-10-17T09:43:58.221Z,19.30
2022-10-17T09:44:54.500Z,19.30
2022-10-17T09:45:44.193Z,19.30
2022-10-17T09:46:29.415Z,19.30
2022-10-17T09:47:36.523Z,19.20